Time;durP1;ratioP1;P1;durP2;ratioP2;P2;SDS_P1;SDS_P2;PMS_P1;PMS_P2;Temp;Humidity;BMP_temperature;BMP_pressure;BME280_temperature;BME280_humidity;BME280_pressure;Samples;Min_cycle;Max_cycle;Signal;HPM_P1;HPM_P2
2021/12/04 00:02:07;;;;;;;12.20;6.22;;;;;;;-1.64;100.00;98910.66;4894799;29;20041;-74
2021/12/04 00:04:54;;;;;;;11.65;5.97;;;;;;;-1.66;100.00;98889.22;4894902;29;20380;-74
2021/12/04 00:07:39;;;;;;;13.15;6.40;;;;;;;-1.62;100.00;98891.00;4882326;29;20450;-74
2021/12/04 00:10:28;;;;;;;12.75;5.45;;;;;;;-1.61;100.00;98884.16;4882093;29;20082;-74
2021/12/04 00:13:12;;;;;;;12.85;6.10;;;;;;;-1.59;100.00;98878.19;4895233;29;20162;-74
2021/12/04 00:15:57;;;;;;;17.08;6.03;;;;;;;-1.59;100.00;98872.16;4882101;29;20044;-74
2021/12/04 00:18:41;;;;;;;17.35;7.32;;;;;;;-1.60;100.00;98863.59;4894749;29;20045;-74
2021/12/04 00:21:25;;;;;;;19.83;9.30;;;;;;;-1.58;100.00;98861.91;4895493;29;20057;-74
2021/12/04 00:24:10;;;;;;;21.42;8.10;;;;;;;-1.59;100.00;98857.63;4888497;29;20072;-74
2021/12/04 00:26:55;;;;;;;12.20;6.68;;;;;;;-1.61;100.00;98861.03;4888357;29;20058;-74
2021/12/04 00:29:39;;;;;;;14.43;6.53;;;;;;;-1.56;100.00;98861.91;4874536;29;20061;-74
2021/12/04 00:32:37;;;;;;;14.93;6.40;;;;;;;-1.60;100.00;98848.19;4901146;29;20142;-74
2021/12/04 00:50:25;;;;;;;18.27;7.57;;;;;;;-1.72;100.00;98828.44;4888179;29;20061;-74
2021/12/04 00:53:09;;;;;;;18.55;7.70;;;;;;;-1.73;100.00;98824.13;4888420;29;20076;-74
2021/12/04 00:55:54;;;;;;;16.50;8.38;;;;;;;-1.74;100.00;98826.69;4888390;29;20152;-74
2021/12/04 00:58:39;;;;;;;18.05;8.55;;;;;;;-1.82;100.00;98823.19;4888720;29;20132;-74
2021/12/04 01:01:24;;;;;;;13.35;7.50;;;;;;;-1.88;100.00;98818.88;4888671;29;20132;-74
2021/12/04 01:04:16;;;;;;;16.80;7.55;;;;;;;-1.92;100.00;98811.97;4900614;29;20053;-74
2021/12/04 01:07:01;;;;;;;20.90;8.57;;;;;;;-1.91;100.00;98817.13;4887664;29;20063;-74
2021/12/04 01:09:46;;;;;;;17.02;7.07;;;;;;;-1.99;100.00;98815.34;4900585;29;20355;-74
2021/12/04 01:12:30;;;;;;;17.33;7.20;;;;;;;-2.01;100.00;98806.78;4888157;29;20073;-74
2021/12/04 01:15:14;;;;;;;15.32;7.13;;;;;;;-2.06;100.00;98801.59;4887960;29;20118;-74
2021/12/04 01:17:59;;;;;;;17.27;7.47;;;;;;;-2.03;100.00;98813.59;4888078;29;20124;-74
2021/12/04 01:20:43;;;;;;;16.13;8.38;;;;;;;-2.00;100.00;98805.91;4874437;29;20112;-74
2021/12/04 01:23:28;;;;;;;27.15;9.98;;;;;;;-1.98;100.00;98806.78;4900408;29;20080;-74
2021/12/04 01:26:12;;;;;;;22.45;10.40;;;;;;;-1.98;100.00;98802.53;4887722;29;20049;-74
2021/12/04 01:28:56;;;;;;;20.50;9.40;;;;;;;-1.94;100.00;98794.00;4887201;29;20048;-74
2021/12/04 01:31:41;;;;;;;21.55;7.63;;;;;;;-1.92;100.00;98804.25;4887878;29;20071;-74
2021/12/04 01:34:25;;;;;;;16.85;6.88;;;;;;;-1.88;100.00;98791.50;4884714;29;20048;-74
2021/12/04 01:37:09;;;;;;;13.65;6.90;;;;;;;-1.88;100.00;98788.91;4884925;29;20359;-74
2021/12/04 01:39:54;;;;;;;12.98;6.00;;;;;;;-1.85;100.00;98782.06;4884379;29;20128;-74
2021/12/04 01:42:38;;;;;;;17.08;6.78;;;;;;;-1.80;100.00;98786.41;4884952;29;20121;-74
2021/12/04 01:45:23;;;;;;;16.52;6.90;;;;;;;-1.80;100.00;98778.72;4897388;29;20069;-74
2021/12/04 01:48:08;;;;;;;16.75;6.82;;;;;;;-1.79;100.00;98782.97;4884706;29;20532;-74
2021/12/04 01:50:55;;;;;;;13.57;6.18;;;;;;;-1.74;100.00;98775.34;4884769;29;20181;-74
2021/12/04 01:53:39;;;;;;;16.05;5.90;;;;;;;-1.74;100.00;98777.91;4884854;29;20052;-74
2021/12/04 01:56:31;;;;;;;16.98;6.53;;;;;;;-1.78;100.00;98778.72;4885220;29;20140;-74
2021/12/04 01:59:15;;;;;;;14.32;6.03;;;;;;;-1.77;100.00;98773.59;4884577;29;20051;-74
2021/12/04 02:02:00;;;;;;;22.80;6.35;;;;;;;-1.75;100.00;98776.19;4883612;29;20132;-74
2021/12/04 02:04:45;;;;;;;11.13;5.63;;;;;;;-1.70;100.00;98751.41;4884055;29;20088;-74
2021/12/04 02:07:30;;;;;;;14.30;6.03;;;;;;;-1.67;100.00;98759.13;4884362;29;20123;-74
2021/12/04 02:10:14;;;;;;;14.57;6.05;;;;;;;-1.61;100.00;98737.78;4884619;29;20045;-74
2021/12/04 02:12:59;;;;;;;14.75;6.18;;;;;;;-1.66;100.00;98740.28;4884439;29;20072;-74
2021/12/04 02:15:45;;;;;;;11.57;5.45;;;;;;;-1.63;100.00;98737.75;4884298;29;20040;-74
2021/12/04 02:18:30;;;;;;;12.60;5.85;;;;;;;-1.59;100.00;98736.94;4884602;29;20041;-74
2021/12/04 02:21:15;;;;;;;12.82;5.30;;;;;;;-1.59;100.00;98739.50;4897060;29;20105;-74
2021/12/04 02:24:00;;;;;;;11.60;5.18;;;;;;;-1.53;100.00;98731.81;4884439;29;20128;-74
2021/12/04 02:26:46;;;;;;;11.95;5.35;;;;;;;-1.47;100.00;98737.00;4884100;29;20055;-74
2021/12/04 02:29:31;;;;;;;14.75;5.40;;;;;;;-1.46;100.00;98737.88;4896544;29;20123;-74
2021/12/04 02:32:19;;;;;;;11.00;4.35;;;;;;;-1.48;100.00;98734.44;4883947;29;20119;-74
2021/12/04 02:35:05;;;;;;;10.80;4.68;;;;;;;-1.51;100.00;98719.84;4883875;29;20124;-74
2021/12/04 02:37:49;;;;;;;11.40;5.05;;;;;;;-1.48;100.00;98719.00;4883156;29;20064;-74
2021/12/04 02:40:34;;;;;;;10.60;4.90;;;;;;;-1.43;100.00;98710.50;4896165;29;20140;-74
2021/12/04 02:43:18;;;;;;;10.48;5.60;;;;;;;-1.46;100.00;98704.47;4869940;29;20045;-74
2021/12/04 02:46:03;;;;;;;9.88;4.93;;;;;;;-1.43;100.00;98702.78;4882996;29;20497;-74
2021/12/04 02:48:48;;;;;;;9.25;5.30;;;;;;;-1.38;100.00;98709.66;4883371;29;20132;-74
2021/12/04 02:51:32;;;;;;;12.68;4.88;;;;;;;-1.42;100.00;98701.06;4884215;29;20072;-74
2021/12/04 02:54:16;;;;;;;11.23;5.88;;;;;;;-1.46;100.00;98707.06;4883548;29;20045;-74
2021/12/04 02:57:03;;;;;;;11.27;5.10;;;;;;;-1.44;100.00;98706.19;4882808;29;20131;-74
2021/12/04 02:59:49;;;;;;;9.20;4.40;;;;;;;-1.41;100.00;98705.34;4882508;29;20451;-74
2021/12/04 03:02:34;;;;;;;10.57;4.15;;;;;;;-1.43;100.00;98700.22;4883413;29;20185;-74
2021/12/04 03:05:26;;;;;;;11.18;4.90;;;;;;;-1.37;100.00;98699.38;4883343;29;20386;-74
2021/12/04 03:08:11;;;;;;;8.90;4.20;;;;;;;-1.35;100.00;98692.53;4883296;29;20139;-74
2021/12/04 03:10:56;;;;;;;13.23;5.00;;;;;;;-1.41;100.00;98685.66;4883255;29;20442;-74
2021/12/04 03:13:40;;;;;;;12.02;4.60;;;;;;;-1.51;100.00;98662.50;4882714;29;20140;-74
2021/12/04 03:16:25;;;;;;;13.02;5.20;;;;;;;-1.37;99.53;98681.38;4896121;29;20045;-74
2021/12/04 03:19:09;;;;;;;131.32;38.88;;;;;;;-1.32;99.06;98677.16;4882411;29;20045;-74
2021/12/04 03:21:55;;;;;;;294.25;89.25;;;;;;;-1.28;99.66;98671.16;4882370;29;20438;-74
2021/12/04 03:24:42;;;;;;;248.43;106.82;;;;;;;-1.24;98.83;98669.44;4883018;29;20057;-74
2021/12/04 03:27:29;;;;;;;77.82;43.50;;;;;;;-1.29;98.22;98658.31;4882612;29;20088;-74
2021/12/04 03:30:42;;;;;;;29.50;13.60;;;;;;;-1.22;98.20;98660.91;4882981;29;20052;-74
2021/12/04 03:42:29;;;;;;;25.35;9.80;;;;;;;-1.17;97.56;98635.22;4881929;29;20079;-74
2021/12/04 03:45:13;;;;;;;16.02;7.47;;;;;;;-1.21;97.53;98641.19;4882102;29;20137;-74
2021/12/04 03:48:06;;;;;;;48.55;19.25;;;;;;;-1.21;98.05;98642.06;4882135;29;20044;-74
2021/12/04 03:50:50;;;;;;;40.63;15.90;;;;;;;-1.23;98.84;98640.34;4881573;29;20056;-74
2021/12/04 03:53:36;;;;;;;11.43;5.78;;;;;;;-1.23;98.80;98640.34;4868619;29;20129;-74
2021/12/04 03:56:22;;;;;;;12.63;6.22;;;;;;;-1.29;99.54;98636.06;4894243;29;20052;-74
2021/12/04 03:59:08;;;;;;;11.18;6.68;;;;;;;-1.34;99.27;98631.72;4894657;29;20132;-74
2021/12/04 04:01:52;;;;;;;10.82;5.78;;;;;;;-1.31;99.67;98636.88;4894587;29;20052;-74
2021/12/04 04:04:38;;;;;;;57.88;19.73;;;;;;;-1.34;99.57;98634.31;4882249;29;20075;-74
2021/12/04 04:07:22;;;;;;;31.73;13.70;;;;;;;-1.38;100.00;98632.59;4881603;29;20045;-74
2021/12/04 04:10:08;;;;;;;23.63;8.20;;;;;;;-1.37;100.00;98626.59;4881283;29;20177;-74
2021/12/04 04:12:52;;;;;;;20.95;9.32;;;;;;;-1.38;100.00;98630.00;4880970;29;20105;-74
2021/12/04 04:15:36;;;;;;;11.77;5.85;;;;;;;-1.39;100.00;98613.75;4881623;29;20127;-74
2021/12/04 04:18:21;;;;;;;20.65;11.23;;;;;;;-1.33;100.00;98618.91;4894185;29;20045;-74
2021/12/04 04:21:05;;;;;;;12.65;7.18;;;;;;;-1.37;100.00;98606.88;4894187;29;20587;-74
2021/12/04 04:23:50;;;;;;;9.98;5.38;;;;;;;-1.46;100.00;98597.47;4881424;29;20363;-74
2021/12/04 04:26:34;;;;;;;11.02;6.03;;;;;;;-1.41;100.00;98603.44;4880779;29;20141;-74
2021/12/04 04:29:18;;;;;;;14.73;8.00;;;;;;;-1.45;100.00;98608.59;4880717;29;20417;-74
2021/12/04 04:32:03;;;;;;;14.50;7.57;;;;;;;-1.43;100.00;98614.56;4881242;29;20129;-74
2021/12/04 04:34:52;;;;;;;15.70;9.57;;;;;;;-1.48;100.00;98609.44;4879780;29;20124;-74
2021/12/04 05:02:00;;;;;;;13.18;6.70;;;;;;;-1.46;100.00;98600.03;4893899;29;20045;-74
2021/12/04 05:11:06;;;;;;;14.05;8.02;;;;;;;-1.53;100.00;98587.97;4898119;29;20399;-74
2021/12/04 05:13:52;;;;;;;12.30;7.38;;;;;;;-1.58;100.00;98579.44;4897933;29;20065;-74
2021/12/04 05:16:50;;;;;;;17.10;9.30;;;;;;;-1.60;100.00;98580.25;4895879;29;20048;-74
2021/12/04 05:19:42;;;;;;;9.45;5.95;;;;;;;-1.61;100.00;98592.25;4883574;29;20128;-74
2021/12/04 05:22:26;;;;;;;13.82;8.38;;;;;;;-1.66;100.00;98587.09;4883319;29;20045;-74
2021/12/04 05:25:11;;;;;;;21.17;9.85;;;;;;;-1.60;100.00;98588.81;4883334;29;20502;-74
2021/12/04 05:27:56;;;;;;;20.60;8.90;;;;;;;-1.63;100.00;98585.38;4882642;29;20052;-74
2021/12/04 05:30:40;;;;;;;36.72;14.77;;;;;;;-1.64;100.00;98589.66;4884099;29;20124;-74
2021/12/04 05:33:25;;;;;;;27.35;12.57;;;;;;;-1.75;100.00;98588.78;4884978;29;20357;-74
2021/12/04 05:36:10;;;;;;;28.27;11.75;;;;;;;-1.74;100.00;98590.47;4884986;29;20185;-74
2021/12/04 05:38:54;;;;;;;17.20;8.82;;;;;;;-1.74;100.00;98593.91;4897946;29;20402;-74
2021/12/04 05:41:39;;;;;;;21.48;9.73;;;;;;;-1.81;100.00;98593.88;4897414;29;20057;-74
2021/12/04 05:44:26;;;;;;;18.90;8.88;;;;;;;-1.79;100.00;98602.41;4884976;29;20063;-74
2021/12/04 05:47:22;;;;;;;16.05;7.88;;;;;;;-1.79;100.00;98602.41;4897170;29;20084;-74
2021/12/04 05:50:42;;;;;;;12.18;6.82;;;;;;;-1.88;100.00;98596.41;4884722;29;20391;-74
2021/12/04 05:53:29;;;;;;;12.00;6.65;;;;;;;-1.91;100.00;98596.38;4884747;29;20104;-74
2021/12/04 05:56:13;;;;;;;16.05;8.30;;;;;;;-1.94;100.00;98588.66;4897021;29;20358;-74
2021/12/04 05:58:59;;;;;;;15.40;7.20;;;;;;;-1.89;100.00;98589.53;4884802;29;20332;-74
2021/12/04 06:01:44;;;;;;;11.65;6.53;;;;;;;-1.88;100.00;98592.97;4884177;29;20465;-74
2021/12/04 06:04:28;;;;;;;9.55;5.90;;;;;;;-1.95;100.00;98597.22;4897050;29;20096;-74
2021/12/04 06:07:13;;;;;;;12.57;6.60;;;;;;;-1.99;100.00;98586.91;4884365;29;20045;-74
2021/12/04 06:09:57;;;;;;;12.32;7.15;;;;;;;-2.03;100.00;98587.75;4897602;29;20483;-74
2021/12/04 06:12:41;;;;;;;12.68;7.32;;;;;;;-2.04;100.00;98583.47;4884620;29;20115;-74
2021/12/04 06:15:26;;;;;;;12.40;6.82;;;;;;;-2.07;100.00;98592.00;4883760;29;20052;-74
2021/12/04 06:18:11;;;;;;;11.35;7.65;;;;;;;-2.08;100.00;98589.41;4884306;29;20056;-74
2021/12/04 06:23:59;;;;;;;11.73;6.77;;;;;;;-2.08;100.00;98589.41;4899005;29;20056;-74
2021/12/04 06:26:44;;;;;;;10.82;7.55;;;;;;;-2.11;100.00;98590.28;4883190;29;20132;-74
2021/12/04 06:29:28;;;;;;;13.38;7.60;;;;;;;-2.05;100.00;98584.31;4884852;29;20080;-74
2021/12/04 06:32:12;;;;;;;13.82;7.70;;;;;;;-2.00;100.00;98598.03;4884044;29;20141;-74
2021/12/04 06:34:57;;;;;;;18.30;9.00;;;;;;;-2.05;100.00;98587.72;4896243;29;20064;-74
2021/12/04 06:37:43;;;;;;;16.42;9.25;;;;;;;-2.03;100.00;98598.03;4883465;29;20057;-74
2021/12/04 06:40:28;;;;;;;18.88;8.95;;;;;;;-2.00;100.00;98590.34;4882804;29;20360;-74
2021/12/04 06:43:14;;;;;;;17.90;10.38;;;;;;;-1.97;100.00;98592.94;4882767;29;20069;-74
2021/12/04 06:46:00;;;;;;;20.90;10.23;;;;;;;-1.95;100.00;98588.63;4897821;29;20411;-74
2021/12/04 06:49:05;;;;;;;27.45;12.27;;;;;;;-2.00;100.00;98587.78;4883522;29;20459;-74
2021/12/04 06:51:54;;;;;;;24.15;11.70;;;;;;;-1.90;100.00;98589.53;4884223;29;20049;-74
2021/12/04 06:54:42;;;;;;;31.88;15.52;;;;;;;-1.92;100.00;98592.13;4883155;29;20072;-74
2021/12/04 06:57:28;;;;;;;36.00;17.05;;;;;;;-1.90;100.00;98585.25;4883804;29;20055;-74
2021/12/04 07:00:13;;;;;;;38.70;18.45;;;;;;;-1.90;100.00;98579.28;4883622;29;20121;-74
2021/12/04 07:02:57;;;;;;;43.08;19.13;;;;;;;-1.83;100.00;98583.59;4883242;29;20041;-74
2021/12/04 07:05:42;;;;;;;28.67;15.50;;;;;;;-1.86;100.00;98581.00;4883376;29;20450;-74
2021/12/04 07:08:26;;;;;;;30.20;16.05;;;;;;;-1.88;100.00;98581.00;4896363;29;20059;-74
2021/12/04 07:11:11;;;;;;;33.22;16.70;;;;;;;-1.79;100.00;98571.63;4896023;29;20406;-74
2021/12/04 07:13:55;;;;;;;34.97;17.30;;;;;;;-1.82;100.00;98571.59;4883296;29;20045;-74
2021/12/04 07:16:40;;;;;;;44.97;20.50;;;;;;;-1.76;100.00;98569.06;4883306;29;20419;-74
2021/12/04 07:19:24;;;;;;;62.33;26.20;;;;;;;-1.79;100.00;98569.03;4883370;29;20483;-74
2021/12/04 07:22:10;;;;;;;61.83;26.42;;;;;;;-1.74;100.00;98557.97;4882255;29;20108;-73
2021/12/04 07:24:54;;;;;;;71.90;28.55;;;;;;;-1.77;100.00;98546.81;4883614;29;20097;-74
2021/12/04 07:27:38;;;;;;;60.70;28.52;;;;;;;-1.68;100.00;98559.69;4882403;29;20138;-74
2021/12/04 07:30:24;;;;;;;59.38;27.83;;;;;;;-1.63;100.00;98544.28;4883158;29;20056;-74
2021/12/04 07:33:08;;;;;;;57.05;26.52;;;;;;;-1.57;100.00;98550.31;4895048;29;20079;-74
2021/12/04 07:35:53;;;;;;;48.90;23.52;;;;;;;-1.44;100.00;98554.63;4882503;29;20052;-74
2021/12/04 07:38:37;;;;;;;36.50;18.58;;;;;;;-1.40;100.00;98552.94;4896602;29;20060;-74
2021/12/04 07:41:21;;;;;;;49.70;21.75;;;;;;;-1.27;100.00;98554.69;4883348;29;20119;-74
2021/12/04 07:44:08;;;;;;;61.92;25.42;;;;;;;-1.25;100.00;98550.41;4882916;29;20089;-74
2021/12/04 07:46:52;;;;;;;33.20;17.70;;;;;;;-1.21;100.00;98538.41;4883041;29;20041;-74
2021/12/04 07:49:38;;;;;;;18.25;11.38;;;;;;;-1.26;100.00;98535.00;4882786;29;20040;-74
2021/12/04 07:52:22;;;;;;;21.80;13.35;;;;;;;-1.12;100.00;98542.72;4895724;29;20415;-74
2021/12/04 07:55:09;;;;;;;19.75;11.60;;;;;;;-1.09;100.00;98540.16;4895572;29;20048;-74
2021/12/04 07:57:53;;;;;;;17.90;10.88;;;;;;;-1.03;100.00;98543.59;4895271;29;20044;-74
2021/12/04 08:00:38;;;;;;;12.35;8.32;;;;;;;-0.97;100.00;98535.91;4881591;29;20443;-74
2021/12/04 08:03:22;;;;;;;15.90;8.80;;;;;;;-0.97;100.00;98537.63;4895410;29;20049;-74
2021/12/04 08:06:07;;;;;;;13.57;8.20;;;;;;;-0.91;100.00;98537.63;4895238;29;20075;-74
2021/12/04 08:08:53;;;;;;;18.85;10.00;;;;;;;-0.86;100.00;98532.47;4894866;29;20105;-74
2021/12/04 08:11:38;;;;;;;21.50;9.32;;;;;;;-0.84;100.00;98534.19;4881923;29;20124;-74
2021/12/04 08:14:22;;;;;;;14.00;9.27;;;;;;;-0.75;100.00;98535.88;4895343;29;20338;-74
2021/12/04 08:17:07;;;;;;;22.33;12.63;;;;;;;-0.72;100.00;98523.88;4882621;29;20436;-74
2021/12/04 08:19:51;;;;;;;88.88;33.15;;;;;;;-0.69;100.00;98528.19;4882280;29;20055;-74
2021/12/04 08:22:36;;;;;;;48.38;18.50;;;;;;;-0.63;100.00;98524.75;4881766;29;20053;-74
2021/12/04 08:25:21;;;;;;;112.22;36.10;;;;;;;-0.64;100.00;98513.63;4882239;29;20367;-75
2021/12/04 08:28:06;;;;;;;83.70;28.92;;;;;;;-0.56;100.00;98514.44;4894771;29;20056;-74
2021/12/04 08:30:50;;;;;;;87.95;30.98;;;;;;;-0.49;100.00;98510.16;4895212;29;20079;-74
2021/12/04 08:33:35;;;;;;;42.17;17.02;;;;;;;-0.45;100.00;98523.91;4894742;29;20061;-74
2021/12/04 08:36:21;;;;;;;32.10;14.45;;;;;;;-0.39;100.00;98514.44;4881998;29;20049;-75
2021/12/04 08:39:06;;;;;;;24.85;13.32;;;;;;;-0.40;100.00;98517.00;4882164;29;20407;-75
2021/12/04 08:41:51;;;;;;;14.38;8.00;;;;;;;-0.35;100.00;98530.72;4885114;29;20049;-74
2021/12/04 08:44:37;;;;;;;13.95;7.30;;;;;;;-0.28;99.69;98522.13;4897801;29;20430;-75
2021/12/04 08:47:22;;;;;;;10.55;6.05;;;;;;;-0.21;99.25;98534.13;4886227;29;20045;-75
2021/12/04 08:50:10;;;;;;;8.43;5.28;;;;;;;-0.22;98.50;98518.72;4872096;29;20048;-75
2021/12/04 08:52:57;;;;;;;11.25;5.40;;;;;;;-0.20;97.12;98525.53;4886029;29;20412;-75
2021/12/04 08:55:43;;;;;;;13.32;6.13;;;;;;;-0.14;97.07;98520.38;4898776;29;20045;-74
2021/12/04 08:58:27;;;;;;;15.15;6.28;;;;;;;-0.11;97.52;98530.66;4885729;29;20045;-75
2021/12/04 09:01:24;;;;;;;13.18;7.20;;;;;;;-0.02;97.28;98524.66;4885861;29;20041;-74
2021/12/04 09:04:19;;;;;;;12.93;6.75;;;;;;;-0.01;97.43;98526.34;4885881;29;20466;-75
2021/12/04 09:07:06;;;;;;;13.25;8.68;;;;;;;0.07;97.95;98528.91;4885823;29;20427;-74
2021/12/04 09:09:55;;;;;;;11.10;6.63;;;;;;;0.01;97.93;98528.94;4898512;29;20128;-74
2021/12/04 09:12:40;;;;;;;17.30;10.52;;;;;;;0.12;97.62;98529.75;4900057;29;20546;-75
2021/12/04 09:15:28;;;;;;;17.52;10.25;;;;;;;0.06;98.82;98528.03;4897875;29;20101;-75
2021/12/04 09:18:12;;;;;;;13.50;9.20;;;;;;;0.17;97.68;98528.03;4885336;29;20426;-75
2021/12/04 09:20:57;;;;;;;15.23;8.70;;;;;;;0.06;98.07;98528.03;4885080;29;20049;-75
2021/12/04 09:23:47;;;;;;;13.27;7.00;;;;;;;0.07;97.89;98531.50;4885831;29;20045;-75
2021/12/04 10:03:34;;;;;;;35.25;13.70;;;;;;;0.07;99.49;98488.56;4882806;29;20435;-74
2021/12/04 10:33:26;;;;;;;22.30;11.88;;;;;;;0.39;100.00;98441.19;4884578;29;20419;-74
2021/12/04 10:36:12;;;;;;;28.02;15.63;;;;;;;0.44;100.00;98454.91;4883487;29;20076;-74
2021/12/04 10:38:57;;;;;;;36.35;18.38;;;;;;;0.39;100.00;98454.94;4882877;29;20085;-74
2021/12/04 10:41:45;;;;;;;34.13;19.60;;;;;;;0.47;100.00;98435.13;4884074;29;20174;-74
2021/12/04 10:44:30;;;;;;;26.17;15.90;;;;;;;0.56;100.00;98441.94;4870000;29;20064;-74
2021/12/04 10:47:21;;;;;;;67.30;35.17;;;;;;;0.66;100.00;98438.44;4883774;29;20041;-74
2021/12/04 10:53:22;;;;;;;33.08;15.95;;;;;;;0.64;99.85;98432.44;4883964;29;20128;-74
2021/12/04 10:56:22;;;;;;;34.15;16.98;;;;;;;0.69;100.00;98430.69;4896602;29;20052;-74
2021/12/04 10:59:32;;;;;;;50.78;21.88;;;;;;;0.72;99.34;98431.53;4883525;29;20435;-74
2021/12/04 11:02:24;;;;;;;40.85;19.33;;;;;;;0.72;100.00;98436.69;4883380;29;20049;-74
2021/12/04 11:26:05;;;;;;;23.38;12.13;;;;;;;0.73;100.00;98434.09;4883525;29;20053;-74
2021/12/04 11:38:12;;;;;;;30.42;16.23;;;;;;;0.67;100.00;98421.25;4882849;29;20049;-72
2021/12/04 11:44:04;;;;;;;37.83;18.02;;;;;;;0.73;100.00;98426.38;4883163;29;20057;-72
2021/12/04 11:46:56;;;;;;;25.55;14.18;;;;;;;0.73;100.00;98435.81;4882104;29;20136;-72
2021/12/04 11:49:41;;;;;;;18.08;10.60;;;;;;;0.69;100.00;98428.13;4882013;29;20328;-72
2021/12/04 11:52:26;;;;;;;19.17;11.63;;;;;;;0.77;100.00;98422.03;4882667;29;20128;-72
2021/12/04 11:55:10;;;;;;;43.42;23.85;;;;;;;0.78;100.00;98428.88;4883199;29;20048;-72
2021/12/04 11:57:55;;;;;;;88.85;41.17;;;;;;;0.73;100.00;98428.94;4881988;29;20120;-72
2021/12/04 12:00:41;;;;;;;105.25;57.15;;;;;;;0.76;100.00;98436.66;4883087;29;20101;-72
2021/12/04 12:03:32;;;;;;;92.22;54.47;;;;;;;0.77;100.00;98447.81;4894874;29;20123;-72
2021/12/04 12:06:16;;;;;;;95.22;44.63;;;;;;;0.64;100.00;98453.03;4882489;29;20052;-72
2021/12/04 12:09:27;;;;;;;211.38;85.32;;;;;;;0.32;100.00;98452.38;4882246;29;20072;-72
2021/12/04 12:12:14;;;;;;;320.17;122.13;;;;;;;0.22;100.00;98454.16;4882693;29;20053;-72
2021/12/04 12:15:03;;;;;;;76.28;37.80;;;;;;;0.16;100.00;98449.91;4882302;29;20506;-72
2021/12/04 12:17:48;;;;;;;35.28;18.88;;;;;;;-0.02;100.00;98445.69;4882161;29;20045;-72
2021/12/04 12:21:19;;;;;;;40.72;27.10;;;;;;;0.07;100.00;98449.09;4895010;29;20406;-72
2021/12/04 12:27:18;;;;;;;24.80;14.07;;;;;;;-0.24;100.00;98438.91;4881858;29;20455;-72
2021/12/04 12:36:21;;;;;;;40.45;17.48;;;;;;;-0.26;100.00;98438.94;4881432;29;20041;-72
2021/12/04 12:39:06;;;;;;;45.70;20.35;;;;;;;-0.26;100.00;98432.91;4882140;29;20060;-73
2021/12/04 12:41:50;;;;;;;25.75;13.88;;;;;;;-0.10;100.00;98434.59;4882619;29;20055;-73
2021/12/04 12:44:35;;;;;;;27.52;12.98;;;;;;;-0.29;100.00;98423.50;4881525;29;20120;-72
2021/12/04 12:47:21;;;;;;;20.73;9.50;;;;;;;-0.24;100.00;98424.31;4892723;29;20049;-73
2021/12/04 12:50:05;;;;;;;21.52;11.00;;;;;;;-0.18;100.00;98428.59;4880260;29;20120;-73
2021/12/04 12:53:00;;;;;;;32.33;18.25;;;;;;;-0.25;100.00;98425.19;4880329;29;20071;-73
2021/12/04 12:55:49;;;;;;;48.63;18.25;;;;;;;-0.21;100.00;98415.75;4879505;29;20406;-73
2021/12/04 13:13:53;;;;;;;72.05;30.73;;;;;;;-0.14;100.00;98391.69;4880031;29;20120;-74
2021/12/04 13:16:42;;;;;;;69.93;33.25;;;;;;;-0.16;100.00;98393.44;4879988;29;20124;-73
2021/12/04 13:19:28;;;;;;;64.80;31.67;;;;;;;-0.14;100.00;98389.09;4881944;29;20125;-74
2021/12/04 13:22:17;;;;;;;76.25;40.35;;;;;;;-0.17;100.00;98393.41;4880323;29;20136;-74
2021/12/04 13:25:07;;;;;;;149.70;73.97;;;;;;;-0.25;100.00;98390.88;4894398;29;20498;-73
2021/12/04 13:30:43;;;;;;;133.75;58.70;;;;;;;-0.12;100.00;98379.66;4884401;29;20181;-74
2021/12/04 13:33:33;;;;;;;97.10;45.58;;;;;;;-0.18;100.00;98379.69;4884692;29;20069;-74
2021/12/04 13:36:28;;;;;;;86.22;39.88;;;;;;;-0.14;100.00;98383.97;4884574;29;20115;-74
2021/12/04 13:39:16;;;;;;;80.57;40.72;;;;;;;-0.24;100.00;98378.00;4897455;29;20053;-74
2021/12/04 13:42:02;;;;;;;91.20;40.95;;;;;;;-0.21;100.00;98377.13;4884877;29;20128;-73
2021/12/04 13:44:46;;;;;;;110.90;46.60;;;;;;;-0.26;100.00;98371.13;4885182;29;20139;-74
2021/12/04 13:47:31;;;;;;;146.30;64.63;;;;;;;-0.35;100.00;98371.22;4884872;29;20048;-74
2021/12/04 13:53:25;;;;;;;108.35;57.88;;;;;;;-0.31;100.00;98358.31;4884296;29;20127;-74
2021/12/04 13:56:13;;;;;;;77.95;39.00;;;;;;;-0.32;100.00;98358.34;4884741;29;20101;-74
2021/12/04 13:59:00;;;;;;;59.10;29.75;;;;;;;-0.28;100.00;98362.59;4884654;29;20420;-73
2021/12/04 14:01:45;;;;;;;61.78;33.67;;;;;;;-0.29;100.00;98359.16;4884294;29;20055;-74
2021/12/04 14:04:30;;;;;;;66.80;33.10;;;;;;;-0.27;100.00;98348.84;4884150;29;20124;-74
2021/12/04 14:07:14;;;;;;;72.18;36.03;;;;;;;-0.37;100.00;98336.91;4885084;29;20051;-73
2021/12/04 14:10:09;;;;;;;71.28;33.80;;;;;;;-0.36;100.00;98347.16;4884486;29;20124;-73
2021/12/04 14:12:57;;;;;;;62.55;32.85;;;;;;;-0.29;100.00;98348.03;4883651;29;20340;-73
2021/12/04 14:15:44;;;;;;;55.72;29.85;;;;;;;-0.35;100.00;98343.75;4897088;29;20124;-73
2021/12/04 14:18:29;;;;;;;89.40;40.30;;;;;;;-0.40;100.00;98342.06;4884842;29;20362;-73
2021/12/04 14:21:15;;;;;;;73.63;33.63;;;;;;;-0.49;100.00;98322.38;4885931;29;20419;-73
2021/12/04 14:23:59;;;;;;;64.80;29.55;;;;;;;-0.45;100.00;98334.38;4883829;29;20455;-73
2021/12/04 14:26:51;;;;;;;48.67;22.50;;;;;;;-0.49;100.00;98327.50;4897227;29;20049;-73
2021/12/04 14:29:43;;;;;;;46.42;20.83;;;;;;;-0.56;100.00;98326.69;4883367;29;20400;-74
2021/12/04 14:32:31;;;;;;;31.73;16.42;;;;;;;-0.68;100.00;98318.16;4883089;29;20048;-74
2021/12/04 14:35:16;;;;;;;27.23;14.02;;;;;;;-0.78;100.00;98325.03;4882230;29;20041;-74
2021/12/04 14:38:06;;;;;;;50.70;21.55;;;;;;;-0.86;100.00;98317.38;4882031;29;20053;-74
2021/12/04 14:41:06;;;;;;;104.95;35.67;;;;;;;-1.02;100.00;98319.13;4880780;29;20056;-74
2021/12/04 14:43:51;;;;;;;60.63;23.52;;;;;;;-1.18;100.00;98320.00;4882016;29;20049;-73
2021/12/04 14:46:35;;;;;;;42.97;20.23;;;;;;;-1.43;100.00;98316.59;4895185;29;20045;-77
2021/12/04 14:49:20;;;;;;;46.95;20.98;;;;;;;-1.52;100.00;98324.34;4897229;29;20552;-77
2021/12/04 14:52:05;;;;;;;57.85;26.08;;;;;;;-1.57;100.00;98331.19;4894644;29;20061;-77
2021/12/04 14:54:50;;;;;;;76.88;34.08;;;;;;;-1.67;100.00;98320.91;4894619;29;20053;-77
2021/12/04 14:57:34;;;;;;;55.88;28.35;;;;;;;-1.69;100.00;98332.03;4882407;29;20045;-77
2021/12/04 15:00:27;;;;;;;60.40;28.45;;;;;;;-1.79;100.00;98338.84;4894466;29;20056;-77
2021/12/04 15:03:34;;;;;;;100.13;37.35;;;;;;;-1.78;100.00;98345.72;4868506;29;20045;-77
2021/12/04 15:06:21;;;;;;;54.17;24.95;;;;;;;-1.90;100.00;98336.28;4883960;29;20359;-77
2021/12/04 15:09:10;;;;;;;40.17;19.55;;;;;;;-2.06;100.00;98320.88;4882871;29;20048;-77
2021/12/04 15:11:55;;;;;;;42.88;20.75;;;;;;;-2.05;100.00;98326.00;4883547;29;20056;-77
2021/12/04 15:14:40;;;;;;;48.67;24.05;;;;;;;-2.19;100.00;98314.84;4895910;29;20045;-77
2021/12/04 15:17:25;;;;;;;46.88;24.13;;;;;;;-2.29;100.00;98308.84;4883380;29;20076;-77
2021/12/04 15:20:17;;;;;;;41.03;24.55;;;;;;;-2.33;100.00;98301.16;4882697;29;20053;-77
2021/12/04 15:23:07;;;;;;;38.90;21.30;;;;;;;-2.46;100.00;98307.97;4882847;29;20049;-77
2021/12/04 15:25:55;;;;;;;35.78;19.38;;;;;;;-2.60;100.00;98313.00;4883148;29;20048;-77
2021/12/04 15:28:49;;;;;;;52.15;26.67;;;;;;;-2.61;100.00;98311.31;4883216;29;20105;-77
2021/12/04 15:31:40;;;;;;;180.60;68.82;;;;;;;-2.68;100.00;98302.75;4894761;29;20044;-77
2021/12/04 15:34:42;;;;;;;114.72;47.53;;;;;;;-2.60;100.00;98306.22;4916571;29;20052;-77
2021/12/04 15:37:40;;;;;;;90.78;37.83;;;;;;;-2.82;100.00;98314.66;4901191;29;20075;-77
2021/12/04 15:41:07;;;;;;;87.28;36.55;;;;;;;-2.92;100.00;98307.78;4901769;29;20036;-77
2021/12/04 15:50:42;;;;;;;104.93;45.63;;;;;;;-3.06;100.00;98303.41;4900542;29;20048;-77
2021/12/04 15:53:27;;;;;;;91.70;38.35;;;;;;;-3.16;100.00;98300.81;4899969;29;20048;-77
2021/12/04 15:56:11;;;;;;;270.52;85.20;;;;;;;-3.24;100.00;98305.03;4901381;29;20036;-77
2021/12/04 15:58:56;;;;;;;181.50;57.55;;;;;;;-3.15;100.00;98302.50;4887497;29;20068;-77
2021/12/04 16:01:40;;;;;;;124.35;46.20;;;;;;;-3.33;100.00;98295.59;4900692;29;20056;-76